Time;durP1;ratioP1;P1;durP2;ratioP2;P2;SDS_P1;SDS_P2;PMS_P1;PMS_P2;Temp;Humidity;BMP_temperature;BMP_pressure;BME280_temperature;BME280_humidity;BME280_pressure;Samples;Min_cycle;Max_cycle;Signal;HPM_P1;HPM_P2
2022/02/18 00:00:14;;;;;;;20.40;3.90;;;;;;;9.47;74.85;97946.34;4114041;28;20712;-84
2022/02/18 00:02:20;;;;;;;16.37;3.90;;;;;;;9.51;74.72;97949.56;4114359;28;20639;-85
2022/02/18 00:04:23;;;;;;;17.00;4.03;;;;;;;9.48;74.25;97949.75;4116786;28;21073;-84
2022/02/18 00:06:27;;;;;;;14.57;3.63;;;;;;;9.46;75.32;97954.25;4116521;28;20694;-83
2022/02/18 00:08:30;;;;;;;19.70;4.00;;;;;;;9.42;74.55;97955.38;4117673;28;20702;-83
2022/02/18 00:10:33;;;;;;;16.98;3.97;;;;;;;9.43;74.68;97957.03;4117590;28;20655;-84
2022/02/18 00:12:36;;;;;;;18.83;3.77;;;;;;;9.45;74.33;97952.56;4107348;28;21654;-84
2022/02/18 00:14:44;;;;;;;16.97;3.70;;;;;;;9.42;74.48;97950.97;4125372;28;20663;-84
2022/02/18 00:16:47;;;;;;;13.97;3.63;;;;;;;9.36;74.33;97957.56;4123474;28;20676;-84
2022/02/18 00:18:50;;;;;;;18.63;3.63;;;;;;;9.31;75.56;97954.41;4118380;28;20661;-85
2022/02/18 00:20:54;;;;;;;20.13;3.90;;;;;;;9.28;74.71;97954.63;4120786;28;20664;-85
2022/02/18 00:22:57;;;;;;;14.60;4.43;;;;;;;9.25;75.04;97954.81;4116314;28;20245;-85
2022/02/18 00:25:01;;;;;;;23.52;4.65;;;;;;;9.24;74.89;97958.34;4117209;28;21248;-84
2022/02/18 00:27:04;;;;;;;17.47;3.57;;;;;;;9.20;75.12;97957.72;4112251;28;20851;-84
2022/02/18 00:29:11;;;;;;;16.50;4.30;;;;;;;9.14;76.08;97957.25;4118892;28;22225;-85
2022/02/18 00:31:16;;;;;;;20.77;3.47;;;;;;;9.06;75.93;97960.34;4120825;28;20656;-85
2022/02/18 00:33:19;;;;;;;16.45;4.28;;;;;;;9.00;76.58;97955.53;4135207;28;20721;-86
2022/02/18 00:35:24;;;;;;;17.52;3.67;;;;;;;8.96;76.69;97954.09;4123208;28;20231;-87
2022/02/18 00:37:28;;;;;;;15.93;4.00;;;;;;;8.96;76.62;97948.06;4120528;28;20239;-85
2022/02/18 00:39:37;;;;;;;25.60;5.67;;;;;;;8.93;75.52;97949.09;4122385;28;20670;-86
2022/02/18 00:41:44;;;;;;;11.57;3.28;;;;;;;8.91;76.40;97949.28;4120257;28;21321;-87
2022/02/18 00:43:47;;;;;;;14.00;3.40;;;;;;;8.88;76.87;97944.28;4122623;28;20226;-87
2022/02/18 00:45:50;;;;;;;15.43;3.30;;;;;;;8.87;77.42;97959.06;4121731;28;20237;-87
2022/02/18 00:47:55;;;;;;;14.45;3.45;;;;;;;8.85;77.54;97955.69;4199744;28;20228;-87
2022/02/18 00:49:58;;;;;;;21.30;4.20;;;;;;;8.83;76.59;97964.56;4120517;28;20243;-87
2022/02/18 00:52:01;;;;;;;13.57;3.50;;;;;;;8.83;77.68;97965.38;4113818;28;20640;-86
2022/02/18 00:54:04;;;;;;;19.35;3.63;;;;;;;8.82;76.17;97960.28;4120764;28;20756;-86
2022/02/18 00:56:08;;;;;;;11.03;3.60;;;;;;;8.82;77.63;97966.28;4121053;28;20284;-87
2022/02/18 00:58:11;;;;;;;16.02;4.20;;;;;;;8.83;76.46;97967.16;4120275;28;20647;-84
2022/02/18 01:00:17;;;;;;;18.70;3.95;;;;;;;8.84;76.22;97972.25;4114346;28;20704;-85
2022/02/18 01:02:20;;;;;;;16.30;3.70;;;;;;;8.86;77.09;97979.97;4129060;28;20421;-85
2022/02/18 01:04:25;;;;;;;15.63;2.93;;;;;;;8.89;76.49;97987.56;4099601;28;20876;-86
2022/02/18 01:06:28;;;;;;;18.50;4.67;;;;;;;8.96;76.55;97974.06;4114477;28;21006;-86
2022/02/18 01:08:31;;;;;;;19.87;4.40;;;;;;;8.97;75.90;97979.16;4112603;28;21229;-86
2022/02/18 01:10:35;;;;;;;12.00;3.38;;;;;;;9.02;76.70;97984.06;4099814;28;20655;-85
2022/02/18 01:12:41;;;;;;;16.47;4.37;;;;;;;9.01;77.71;97993.63;4109457;28;20290;-87
2022/02/18 01:14:45;;;;;;;14.25;3.47;;;;;;;9.07;76.37;97982.03;4096411;28;20672;-86
2022/02/18 01:16:48;;;;;;;14.97;3.30;;;;;;;9.11;76.12;97988.69;4111669;28;20241;-86
2022/02/18 01:18:53;;;;;;;16.23;3.80;;;;;;;9.13;76.35;97976.44;4113578;28;21021;-87
2022/02/18 01:20:58;;;;;;;15.27;4.00;;;;;;;9.17;76.76;97972.66;4117711;28;20213;-86
2022/02/18 01:23:01;;;;;;;14.53;4.00;;;;;;;9.21;75.43;97972.38;4117885;28;20652;-86
2022/02/18 01:25:05;;;;;;;19.67;3.83;;;;;;;9.26;75.45;97972.94;4105611;28;20663;-86
2022/02/18 01:27:09;;;;;;;12.17;3.17;;;;;;;9.29;75.97;97969.28;4116548;28;20750;-86
2022/02/18 01:29:13;;;;;;;16.93;4.03;;;;;;;9.34;76.31;97965.47;4121084;28;20660;-86
2022/02/18 01:31:17;;;;;;;17.47;3.90;;;;;;;9.35;75.76;97967.13;4101447;28;20666;-87
2022/02/18 01:33:23;;;;;;;14.00;3.88;;;;;;;9.36;76.00;97963.56;4115519;28;20699;-87
2022/02/18 01:35:27;;;;;;;19.17;3.73;;;;;;;9.42;75.18;97968.38;4117823;28;20273;-87
2022/02/18 01:37:31;;;;;;;13.47;3.80;;;;;;;9.52;75.48;97964.25;4118430;28;20656;-86
2022/02/18 01:39:35;;;;;;;15.50;3.97;;;;;;;9.52;75.11;97959.03;4119573;28;20670;-86
2022/02/18 01:41:38;;;;;;;15.23;3.90;;;;;;;9.57;74.70;97954.34;4117050;28;20670;-87
2022/02/18 01:43:49;;;;;;;21.80;4.43;;;;;;;9.62;75.04;97966.16;4134661;28;20643;-86
2022/02/18 01:45:52;;;;;;;15.67;4.00;;;;;;;9.69;75.26;97964.78;4115044;28;21630;-87
2022/02/18 01:47:55;;;;;;;17.50;4.40;;;;;;;9.75;74.85;97961.75;4117218;28;21254;-86
2022/02/18 01:49:59;;;;;;;15.77;3.20;;;;;;;9.83;75.14;97958.66;4114750;28;20673;-87
2022/02/18 01:52:02;;;;;;;18.83;5.50;;;;;;;9.88;75.25;97957.41;4120755;28;20648;-87
2022/02/18 01:54:07;;;;;;;17.73;3.43;;;;;;;9.94;75.18;97957.03;4116421;28;20656;-87
2022/02/18 01:56:11;;;;;;;11.20;3.30;;;;;;;9.98;74.45;97951.50;4099704;28;20648;-85
2022/02/18 01:58:14;;;;;;;17.70;4.33;;;;;;;10.02;74.57;97950.34;4182350;28;20653;-87
2022/02/18 02:00:18;;;;;;;17.17;4.23;;;;;;;10.08;74.57;97955.13;4117258;28;20664;-85
2022/02/18 02:02:22;;;;;;;18.43;3.87;;;;;;;10.09;75.30;97945.56;4201558;28;20644;-86
2022/02/18 02:04:25;;;;;;;17.20;4.33;;;;;;;10.09;75.51;97953.38;4120635;28;20669;-86
2022/02/18 02:06:28;;;;;;;16.00;3.50;;;;;;;10.09;74.90;97953.38;4117981;28;20662;-86
2022/02/18 02:08:31;;;;;;;16.30;3.60;;;;;;;10.13;74.58;97963.50;4120930;28;20656;-86
2022/02/18 02:10:36;;;;;;;13.30;3.00;;;;;;;10.15;74.32;97961.59;4115603;28;20755;-87
2022/02/18 02:12:51;;;;;;;12.30;3.17;;;;;;;10.17;74.13;97971.91;4122734;28;20655;-87
2022/02/18 02:15:10;;;;;;;10.07;3.10;;;;;;;10.21;73.78;97966.41;4120983;28;20691;-85
2022/02/18 02:17:13;;;;;;;16.07;3.63;;;;;;;10.22;72.75;97956.78;4123247;28;20648;-86
2022/02/18 02:19:18;;;;;;;15.00;3.80;;;;;;;10.24;73.32;97953.16;4101853;28;20675;-84
2022/02/18 02:21:22;;;;;;;16.97;3.40;;;;;;;10.26;73.60;97950.44;4118898;28;20634;-84
2022/02/18 02:23:28;;;;;;;15.37;3.30;;;;;;;10.27;73.60;97950.34;4101444;28;21275;-85
2022/02/18 02:25:35;;;;;;;13.07;3.60;;;;;;;10.26;73.53;97943.44;4105483;28;20692;-83
2022/02/18 02:27:45;;;;;;;16.97;3.60;;;;;;;10.27;73.88;97939.06;4123482;28;20714;-83
2022/02/18 02:29:49;;;;;;;13.30;3.23;;;;;;;10.25;73.26;97933.94;4103818;28;20709;-85
2022/02/18 02:31:54;;;;;;;11.30;3.27;;;;;;;10.25;73.33;97931.34;4111710;28;20671;-84
2022/02/18 02:33:57;;;;;;;15.53;3.57;;;;;;;10.26;73.14;97927.81;4117596;28;21114;-85
2022/02/18 02:36:02;;;;;;;11.50;3.33;;;;;;;10.27;73.53;97918.22;4136983;28;20651;-84
2022/02/18 02:38:06;;;;;;;18.93;3.60;;;;;;;10.29;73.13;97909.34;4117517;28;22122;-85
2022/02/18 02:40:18;;;;;;;13.60;3.27;;;;;;;10.27;73.33;97913.00;4118828;28;20661;-84
2022/02/18 02:42:23;;;;;;;13.30;3.20;;;;;;;10.23;73.07;97911.56;4122229;28;20660;-85
2022/02/18 02:44:32;;;;;;;16.13;4.07;;;;;;;10.22;73.71;97902.88;4102873;28;20669;-84
2022/02/18 02:46:45;;;;;;;12.87;3.40;;;;;;;10.21;73.01;97903.00;4115724;28;20653;-84
2022/02/18 02:48:59;;;;;;;14.47;3.40;;;;;;;10.19;73.13;97905.72;4101710;28;20754;-88
2022/02/18 02:51:07;;;;;;;15.77;3.27;;;;;;;10.19;72.99;97905.72;4116217;28;21257;-87
2022/02/18 02:53:10;;;;;;;14.00;4.17;;;;;;;10.21;72.71;97908.22;4098138;28;20660;-86
2022/02/18 02:55:15;;;;;;;14.07;4.03;;;;;;;10.23;73.30;97901.13;4121856;28;20665;-87
2022/02/18 02:57:19;;;;;;;12.77;3.30;;;;;;;10.21;73.04;97893.44;4117225;28;20683;-86
2022/02/18 02:59:30;;;;;;;13.17;3.20;;;;;;;10.16;73.28;97900.72;4099205;28;21109;-87
2022/02/18 03:01:36;;;;;;;14.53;4.13;;;;;;;10.11;73.65;97891.56;4115688;28;20646;-85
2022/02/18 03:03:39;;;;;;;10.33;4.17;;;;;;;10.09;73.89;97891.66;4115721;28;20751;-87
2022/02/18 03:05:42;;;;;;;14.60;3.97;;;;;;;10.09;74.77;97889.06;4107894;28;20744;-86
2022/02/18 03:07:46;;;;;;;12.67;3.30;;;;;;;10.09;74.26;97889.06;4099347;28;20668;-86
2022/02/18 03:09:57;;;;;;;12.83;3.60;;;;;;;10.09;74.68;97873.44;4114140;28;20653;-84
2022/02/18 03:12:03;;;;;;;16.03;3.50;;;;;;;10.09;74.70;97878.66;4116888;28;20646;-85
2022/02/18 03:14:18;;;;;;;19.57;3.40;;;;;;;10.08;74.43;97866.53;4119025;28;20682;-87
2022/02/18 03:16:47;;;;;;;15.60;3.87;;;;;;;10.07;74.14;97862.28;4114097;28;20659;-86
2022/02/18 03:18:50;;;;;;;16.30;4.57;;;;;;;10.05;74.42;97858.94;4117346;28;20714;-87
2022/02/18 03:20:53;;;;;;;12.80;3.43;;;;;;;10.05;74.05;97858.13;4101532;28;21013;-86
2022/02/18 03:22:56;;;;;;;13.00;3.20;;;;;;;10.01;73.74;97859.25;4116509;28;21838;-86
2022/02/18 03:24:59;;;;;;;13.30;4.00;;;;;;;9.98;73.93;97869.91;4115735;28;21034;-87
2022/02/18 03:27:05;;;;;;;9.03;3.77;;;;;;;9.94;73.76;97864.09;4120513;28;20667;-86
2022/02/18 03:29:13;;;;;;;11.00;3.47;;;;;;;9.91;74.10;97863.44;4118935;28;20654;-86
2022/02/18 03:31:36;;;;;;;17.33;3.90;;;;;;;9.84;74.09;97873.41;4110074;28;20708;-86
2022/02/18 03:33:41;;;;;;;12.40;3.40;;;;;;;9.80;74.54;97867.72;4131268;28;21104;-85
2022/02/18 03:35:44;;;;;;;12.33;4.13;;;;;;;9.75;74.79;97862.00;4180450;28;20833;-87
2022/02/18 03:37:48;;;;;;;11.93;3.13;;;;;;;9.72;74.62;97854.38;4116845;28;20655;-86
2022/02/18 03:40:06;;;;;;;10.60;3.47;;;;;;;9.67;75.19;97843.47;4118758;28;20666;-86
2022/02/18 03:42:13;;;;;;;13.43;3.83;;;;;;;9.63;74.73;97849.81;4115548;28;20659;-87
2022/02/18 03:44:17;;;;;;;12.67;3.03;;;;;;;9.58;74.70;97850.13;4112551;28;20691;-85
2022/02/18 03:46:36;;;;;;;13.23;4.47;;;;;;;9.51;74.25;97841.06;4116403;28;20645;-87
2022/02/18 03:48:39;;;;;;;13.87;3.33;;;;;;;9.47;74.54;97833.56;4097456;28;20656;-86
2022/02/18 03:50:43;;;;;;;10.30;3.30;;;;;;;9.36;74.53;97836.06;4130588;28;20689;-85
2022/02/18 03:52:46;;;;;;;15.30;3.67;;;;;;;9.33;74.74;97836.25;4097966;28;23045;-87
2022/02/18 03:54:49;;;;;;;13.20;4.03;;;;;;;9.29;74.96;97829.63;4122310;28;21034;-86
2022/02/18 03:56:53;;;;;;;14.50;4.00;;;;;;;9.24;74.97;97826.47;4113444;28;20748;-86
2022/02/18 03:58:58;;;;;;;15.23;3.93;;;;;;;9.20;74.88;97822.44;4102551;28;20715;-87
2022/02/18 04:01:01;;;;;;;15.70;3.73;;;;;;;9.18;75.81;97819.09;4101040;28;21467;-86
2022/02/18 04:03:05;;;;;;;12.50;3.60;;;;;;;9.19;74.21;97819.94;4101178;28;21734;-85
2022/02/18 04:05:37;;;;;;;12.80;3.70;;;;;;;9.15;75.41;97829.69;4119654;28;20663;-87
2022/02/18 04:07:56;;;;;;;17.17;3.83;;;;;;;9.11;75.18;97828.25;4103289;28;20698;-86
2022/02/18 04:09:59;;;;;;;14.97;3.57;;;;;;;9.08;75.57;97831.06;4100262;28;20682;-85
2022/02/18 04:12:07;;;;;;;18.37;5.30;;;;;;;9.02;74.98;97825.41;4094712;28;21219;-86
2022/02/18 04:14:16;;;;;;;12.27;3.17;;;;;;;8.94;74.73;97825.09;4100873;28;20684;-86
2022/02/18 04:16:28;;;;;;;11.50;3.20;;;;;;;8.94;75.19;97818.16;4115576;28;20660;-87
2022/02/18 04:18:40;;;;;;;12.00;3.10;;;;;;;8.92;74.96;97817.38;4116245;28;20655;-86
2022/02/18 04:20:43;;;;;;;15.43;4.00;;;;;;;8.91;76.06;97814.88;4102411;28;20673;-87
2022/02/18 04:23:20;;;;;;;17.57;4.10;;;;;;;8.92;75.56;97822.59;4105080;28;20705;-86
2022/02/18 04:25:23;;;;;;;10.17;2.97;;;;;;;8.92;76.24;97825.19;4118555;28;20673;-87
2022/02/18 04:27:26;;;;;;;14.00;3.60;;;;;;;8.97;75.43;97822.28;4114776;28;20663;-87
2022/02/18 04:29:31;;;;;;;12.07;3.63;;;;;;;8.93;75.52;97813.88;4114729;28;20664;-84
2022/02/18 04:31:34;;;;;;;11.83;3.50;;;;;;;8.90;76.24;97817.59;4115979;28;20675;-85
2022/02/18 04:33:37;;;;;;;9.80;3.33;;;;;;;8.88;75.30;97822.06;4112603;28;20664;-86
2022/02/18 04:35:40;;;;;;;17.20;4.57;;;;;;;8.83;77.08;97814.56;4115894;28;20714;-87
2022/02/18 04:37:44;;;;;;;12.97;3.73;;;;;;;8.80;76.48;97816.56;4117656;28;20702;-87
2022/02/18 04:39:47;;;;;;;17.10;4.03;;;;;;;8.76;76.81;97804.69;4115293;28;20664;-86
2022/02/18 04:41:50;;;;;;;12.03;2.87;;;;;;;8.74;76.66;97798.75;4117054;28;20683;-87
2022/02/18 04:43:53;;;;;;;25.53;3.40;;;;;;;8.69;77.14;97796.44;4097005;28;21103;-86
2022/02/18 04:45:58;;;;;;;11.87;4.17;;;;;;;8.67;77.30;97784.47;4113419;28;20670;-87
2022/02/18 04:48:01;;;;;;;13.10;3.33;;;;;;;8.61;76.63;97787.47;4111939;28;20672;-87
2022/02/18 04:50:04;;;;;;;13.03;3.50;;;;;;;8.58;77.32;97785.09;4116441;28;20990;-86
2022/02/18 04:52:08;;;;;;;14.33;4.30;;;;;;;8.58;76.71;97778.09;4117070;28;20655;-87
2022/02/18 04:54:11;;;;;;;12.50;2.92;;;;;;;8.56;77.94;97763.56;4114831;28;20725;-87
2022/02/18 04:56:14;;;;;;;20.17;5.07;;;;;;;8.60;77.51;97770.22;4113756;28;20251;-87
2022/02/18 04:58:17;;;;;;;18.27;3.83;;;;;;;8.60;76.90;97757.22;4115482;28;20747;-87
2022/02/18 05:00:20;;;;;;;10.63;2.37;;;;;;;8.62;77.70;97748.41;4117657;28;20233;-87
2022/02/18 05:02:25;;;;;;;15.68;3.67;;;;;;;8.67;78.19;97748.91;4118221;28;20677;-87
2022/02/18 05:04:28;;;;;;;12.67;2.93;;;;;;;8.72;77.57;97757.25;4116818;28;20607;-88
2022/02/18 05:06:31;;;;;;;12.40;3.10;;;;;;;8.72;77.27;97746.00;4116936;28;20654;-87
2022/02/18 05:08:34;;;;;;;9.57;3.08;;;;;;;8.77;77.03;97749.16;4096355;28;20678;-87
2022/02/18 05:10:38;;;;;;;12.38;2.90;;;;;;;8.82;78.22;97744.47;4199362;28;20224;-87
2022/02/18 05:12:41;;;;;;;10.50;3.20;;;;;;;8.87;77.51;97751.03;4113416;28;20240;-86
2022/02/18 05:14:44;;;;;;;9.10;2.80;;;;;;;8.90;77.61;97762.97;4120286;28;20649;-87
2022/02/18 05:16:47;;;;;;;14.07;5.00;;;;;;;8.93;77.57;97764.47;4121498;28;20667;-86
2022/02/18 05:18:54;;;;;;;7.77;3.10;;;;;;;8.94;76.92;97755.72;4117788;28;20706;-87
2022/02/18 05:20:57;;;;;;;14.70;2.87;;;;;;;8.96;77.01;97751.25;4133284;28;20767;-85
2022/02/18 05:23:01;;;;;;;12.60;2.80;;;;;;;8.97;78.58;97737.28;4119395;28;24043;-85
2022/02/18 05:25:05;;;;;;;10.67;2.97;;;;;;;8.97;78.49;97733.88;4115786;28;21096;-85
2022/02/18 05:27:08;;;;;;;13.20;2.80;;;;;;;8.97;78.35;97733.88;4118757;28;21015;-85
2022/02/18 05:29:11;;;;;;;13.40;3.47;;;;;;;8.95;78.05;97723.56;4120595;28;20663;-85
2022/02/18 05:31:14;;;;;;;13.00;2.73;;;;;;;8.94;77.80;97716.72;4120367;28;20229;-85
2022/02/18 05:33:17;;;;;;;13.47;3.90;;;;;;;8.96;77.90;97711.41;4119160;28;21209;-83
2022/02/18 05:35:22;;;;;;;9.77;3.40;;;;;;;9.01;78.58;97706.72;4123616;28;20671;-84
2022/02/18 05:37:25;;;;;;;12.87;3.07;;;;;;;9.03;77.26;97690.06;4118366;28;20647;-84
2022/02/18 05:39:28;;;;;;;11.00;3.10;;;;;;;9.09;77.98;97684.44;4103248;28;20751;-84
2022/02/18 05:41:31;;;;;;;12.33;3.40;;;;;;;9.14;77.31;97684.97;4116775;28;20681;-84
2022/02/18 05:43:35;;;;;;;11.10;3.07;;;;;;;9.18;77.25;97678.59;4118668;28;21218;-85
2022/02/18 05:45:38;;;;;;;10.83;2.90;;;;;;;9.20;77.54;97681.09;4121680;28;20649;-85
2022/02/18 05:47:41;;;;;;;11.70;3.03;;;;;;;9.19;76.94;97667.28;4122503;28;20999;-86
2022/02/18 05:49:48;;;;;;;12.10;3.07;;;;;;;9.21;78.32;97659.34;4122244;28;20679;-85
2022/02/18 05:51:53;;;;;;;11.73;3.03;;;;;;;9.19;77.29;97661.25;4122541;28;21203;-85
2022/02/18 05:53:56;;;;;;;14.70;3.13;;;;;;;9.17;77.68;97663.09;4117102;28;20693;-84
2022/02/18 05:55:59;;;;;;;12.13;3.73;;;;;;;9.17;78.56;97656.16;4124942;28;20700;-85
2022/02/18 05:58:02;;;;;;;11.80;3.60;;;;;;;9.21;78.87;97652.38;4123345;28;20664;-86
2022/02/18 06:00:08;;;;;;;11.77;3.67;;;;;;;9.23;79.10;97654.88;4123453;28;20656;-85
2022/02/18 06:02:15;;;;;;;14.30;3.57;;;;;;;9.24;78.93;97659.97;4122282;28;20671;-85
2022/02/18 06:04:22;;;;;;;17.37;4.73;;;;;;;9.23;78.54;97647.06;4122915;28;20710;-87
2022/02/18 06:06:27;;;;;;;11.03;4.33;;;;;;;9.24;78.20;97646.97;4119085;28;20647;-88
2022/02/18 06:08:31;;;;;;;11.50;4.07;;;;;;;9.22;79.41;97643.63;4119788;28;21083;-86
2022/02/18 06:10:37;;;;;;;15.60;3.90;;;;;;;9.21;78.67;97636.75;4124978;28;20665;-85
2022/02/18 06:12:40;;;;;;;13.40;4.07;;;;;;;9.19;78.85;97633.44;4121062;28;20651;-83
2022/02/18 06:14:43;;;;;;;15.23;4.07;;;;;;;9.19;79.64;97637.84;4118110;28;20656;-84
2022/02/18 06:16:46;;;;;;;11.60;4.40;;;;;;;9.18;78.79;97636.16;4101946;28;21246;-85
2022/02/18 06:18:49;;;;;;;13.77;2.80;;;;;;;9.18;79.25;97636.97;4117915;28;20662;-84
2022/02/18 06:20:53;;;;;;;13.82;3.42;;;;;;;9.24;79.04;97620.13;4105360;28;20663;-85
2022/02/18 06:22:56;;;;;;;9.63;4.30;;;;;;;9.32;79.80;97628.22;4124195;28;20232;-85
2022/02/18 06:25:00;;;;;;;9.57;3.50;;;;;;;9.37;78.97;97624.34;4112242;28;20685;-83
2022/02/18 06:27:05;;;;;;;13.27;3.30;;;;;;;9.45;79.21;97624.63;4114581;28;20664;-85
2022/02/18 06:29:13;;;;;;;11.50;3.17;;;;;;;9.51;78.86;97625.00;4115868;28;20659;-86
2022/02/18 06:31:18;;;;;;;11.77;2.67;;;;;;;9.58;78.88;97613.22;4113485;28;20698;-85
2022/02/18 06:33:21;;;;;;;8.10;3.00;;;;;;;9.64;78.33;97610.19;4116859;28;20775;-85
2022/02/18 06:35:25;;;;;;;7.47;2.90;;;;;;;9.70;78.35;97607.13;4117903;28;20645;-85
2022/02/18 06:37:28;;;;;;;16.90;3.80;;;;;;;9.77;78.09;97604.91;4116913;28;20654;-85
2022/02/18 06:39:35;;;;;;;11.80;2.50;;;;;;;9.82;78.16;97608.84;4115126;28;20687;-88
2022/02/18 06:41:42;;;;;;;9.87;3.40;;;;;;;9.88;77.67;97592.78;4117723;28;20708;-85
2022/02/18 06:43:46;;;;;;;11.30;2.70;;;;;;;9.97;77.73;97598.16;4114321;28;20655;-87
2022/02/18 06:45:49;;;;;;;9.37;3.33;;;;;;;10.02;77.89;97590.00;4114852;28;20660;-87
2022/02/18 06:47:52;;;;;;;13.87;3.20;;;;;;;10.06;77.36;97589.69;4117189;28;20660;-89
2022/02/18 06:49:56;;;;;;;8.20;2.70;;;;;;;10.10;77.28;97591.13;4099812;28;20752;-87
2022/02/18 06:51:59;;;;;;;8.30;2.93;;;;;;;10.14;77.63;97591.72;4119357;28;21097;-84
2022/02/18 06:54:02;;;;;;;7.13;2.53;;;;;;;10.18;76.74;97580.09;4115687;28;20647;-87
2022/02/18 06:56:25;;;;;;;13.30;3.10;;;;;;;10.22;76.35;97577.16;4113949;28;21208;-86
2022/02/18 06:58:30;;;;;;;16.20;3.67;;;;;;;10.26;76.98;97568.16;4111301;28;20648;-87
2022/02/18 07:00:33;;;;;;;15.67;3.40;;;;;;;10.30;77.15;97559.19;4117909;28;20652;-86
2022/02/18 07:02:38;;;;;;;10.50;2.80;;;;;;;10.35;76.85;97562.25;4116874;28;21231;-85
2022/02/18 07:04:41;;;;;;;10.53;3.40;;;;;;;10.38;77.42;97559.41;4108204;28;20639;-86
2022/02/18 07:06:44;;;;;;;17.23;6.00;;;;;;;10.42;77.82;97553.03;4121594;28;20655;-84
2022/02/18 07:08:49;;;;;;;11.60;3.27;;;;;;;10.46;77.22;97554.44;4111289;28;20655;-86
2022/02/18 07:10:52;;;;;;;8.80;2.80;;;;;;;10.54;77.51;97549.47;4119344;28;20660;-84
2022/02/18 07:12:56;;;;;;;10.20;2.60;;;;;;;10.61;77.69;97545.44;4111461;28;20657;-82
2022/02/18 07:15:01;;;;;;;7.43;2.67;;;;;;;10.65;77.16;97547.69;4118964;28;20745;-83
2022/02/18 07:17:06;;;;;;;9.53;3.00;;;;;;;10.70;76.58;97542.13;4128407;28;21286;-83
2022/02/18 07:19:09;;;;;;;12.30;4.10;;;;;;;10.74;77.72;97543.56;4122078;28;21445;-84
2022/02/18 07:21:13;;;;;;;9.83;3.03;;;;;;;10.76;77.41;97536.44;4120483;28;20692;-84
2022/02/18 07:23:16;;;;;;;14.77;3.87;;;;;;;10.75;76.77;97534.78;4122057;28;20657;-84
2022/02/18 07:25:20;;;;;;;10.47;3.93;;;;;;;10.80;77.45;97529.09;4105743;28;20653;-84
2022/02/18 07:27:23;;;;;;;7.03;2.53;;;;;;;10.84;76.57;97530.50;4125331;28;20991;-85
2022/02/18 07:29:26;;;;;;;11.87;3.20;;;;;;;10.90;77.38;97532.63;4125492;28;20658;-85
2022/02/18 07:31:36;;;;;;;7.57;2.67;;;;;;;10.96;76.34;97519.13;4122658;28;20708;-84
2022/02/18 07:33:39;;;;;;;10.27;2.97;;;;;;;11.03;77.17;97519.44;4091144;28;20662;-88
2022/02/18 07:35:42;;;;;;;13.67;3.47;;;;;;;11.04;76.98;97511.50;4112385;28;20672;-87
2022/02/18 07:37:49;;;;;;;8.33;2.87;;;;;;;11.07;75.79;97516.47;4118757;28;20694;-87
2022/02/18 07:39:53;;;;;;;16.93;4.10;;;;;;;11.14;76.26;97507.22;4115202;28;20667;-88
2022/02/18 07:41:56;;;;;;;18.20;5.73;;;;;;;11.20;76.21;97506.72;4117495;28;20663;-86
2022/02/18 07:44:05;;;;;;;13.70;5.57;;;;;;;11.26;76.24;97497.56;4118073;28;20661;-86
2022/02/18 07:46:10;;;;;;;13.70;5.53;;;;;;;11.28;75.88;97496.50;4119440;28;20659;-86
2022/02/18 07:48:14;;;;;;;15.80;6.53;;;;;;;11.28;77.85;97502.53;4098519;28;20667;-86
2022/02/18 07:50:17;;;;;;;21.30;8.20;;;;;;;11.30;76.59;97498.00;4118491;28;21017;-87
2022/02/18 07:52:21;;;;;;;11.80;4.43;;;;;;;11.32;77.81;97496.13;4125670;28;20660;-88
2022/02/18 07:54:24;;;;;;;10.53;4.40;;;;;;;11.34;77.74;97488.16;4117747;28;20699;-86
2022/02/18 07:56:28;;;;;;;12.77;4.90;;;;;;;11.36;76.56;97488.88;4100420;28;21036;-86
2022/02/18 07:58:32;;;;;;;12.10;4.70;;;;;;;11.36;75.77;97487.06;4116567;28;20761;-87
2022/02/18 08:00:36;;;;;;;8.27;4.53;;;;;;;11.32;76.65;97472.63;4118268;28;20693;-85
2022/02/18 08:02:41;;;;;;;8.60;2.40;;;;;;;11.30;74.95;97476.31;4120491;28;20700;-86
2022/02/18 08:04:46;;;;;;;9.53;3.00;;;;;;;11.24;74.89;97463.75;4113271;28;21212;-86
2022/02/18 08:06:49;;;;;;;8.30;2.40;;;;;;;11.23;74.30;97466.47;4124257;28;20658;-86
2022/02/18 08:08:53;;;;;;;10.97;3.37;;;;;;;11.24;73.79;97461.16;4107822;28;21240;-83
2022/02/18 08:10:56;;;;;;;12.70;4.93;;;;;;;11.28;74.39;97462.56;4117049;28;20759;-83
2022/02/18 08:12:59;;;;;;;11.93;3.80;;;;;;;11.31;72.91;97468.34;4123952;28;20789;-82
2022/02/18 08:15:03;;;;;;;12.10;2.67;;;;;;;11.31;74.04;97464.94;4111722;28;20644;-84
2022/02/18 08:17:07;;;;;;;13.73;4.80;;;;;;;11.32;72.63;97458.72;4112388;28;20698;-83
2022/02/18 08:19:13;;;;;;;13.17;7.37;;;;;;;11.33;73.09;97457.78;4098269;28;21206;-84
2022/02/18 08:21:17;;;;;;;12.10;2.93;;;;;;;11.33;74.51;97444.72;4102336;28;20640;-84
2022/02/18 08:23:21;;;;;;;12.03;3.07;;;;;;;11.35;73.06;97453.25;4115308;28;20655;-83
2022/02/18 08:25:24;;;;;;;12.73;3.47;;;;;;;11.35;73.37;97445.44;4097200;28;20634;-84
2022/02/18 08:27:27;;;;;;;11.50;2.87;;;;;;;11.37;72.88;97440.94;4117520;28;20642;-84
2022/02/18 08:29:30;;;;;;;10.30;3.00;;;;;;;11.39;73.02;97445.06;4111796;28;20653;-83
2022/02/18 08:31:34;;;;;;;11.20;2.77;;;;;;;11.44;73.52;97426.41;4114648;28;20667;-84
2022/02/18 08:33:37;;;;;;;8.00;2.57;;;;;;;11.46;74.52;97420.09;4116445;28;20643;-84
2022/02/18 08:35:40;;;;;;;9.30;2.63;;;;;;;11.49;74.11;97419.88;4130378;28;20645;-84
2022/02/18 08:37:45;;;;;;;8.30;2.50;;;;;;;11.54;74.92;97428.16;4116757;28;20697;-84
2022/02/18 08:39:48;;;;;;;10.07;2.77;;;;;;;11.62;74.00;97424.91;4119238;28;20647;-85
2022/02/18 08:41:54;;;;;;;7.10;2.27;;;;;;;11.69;73.85;97424.28;4117858;28;21182;-83
2022/02/18 08:43:58;;;;;;;15.60;3.37;;;;;;;11.75;73.82;97420.34;4115412;28;20790;-85
2022/02/18 08:46:01;;;;;;;8.43;3.40;;;;;;;11.79;74.63;97415.56;4130347;28;21203;-84
2022/02/18 08:48:05;;;;;;;20.33;3.40;;;;;;;11.83;74.71;97413.50;4121448;28;21198;-84
2022/02/18 08:50:11;;;;;;;10.47;3.00;;;;;;;11.84;74.87;97408.16;4116528;28;20656;-84
2022/02/18 08:52:14;;;;;;;9.47;2.93;;;;;;;11.89;73.26;97403.38;4115840;28;20645;-84
2022/02/18 08:54:18;;;;;;;9.50;2.60;;;;;;;11.95;74.06;97400.25;4117294;28;20653;-84
2022/02/18 08:56:21;;;;;;;8.23;2.67;;;;;;;12.03;73.98;97394.38;4122626;28;21225;-85
2022/02/18 08:58:25;;;;;;;10.57;3.10;;;;;;;12.09;72.00;97391.22;4105097;28;20650;-84
2022/02/18 09:00:29;;;;;;;10.07;3.17;;;;;;;12.20;72.90;97380.69;4118018;28;20658;-84
2022/02/18 09:02:32;;;;;;;10.47;2.80;;;;;;;12.37;72.52;97384.34;4115797;28;21330;-84
2022/02/18 09:04:35;;;;;;;11.20;2.70;;;;;;;12.54;72.49;97375.00;4116076;28;20639;-83
2022/02/18 09:06:44;;;;;;;6.77;2.80;;;;;;;12.63;75.71;97379.41;4116414;28;20694;-84
2022/02/18 09:08:47;;;;;;;5.90;2.00;;;;;;;12.68;75.27;97377.25;4118642;28;20722;-84
2022/02/18 09:10:53;;;;;;;6.00;1.57;;;;;;;12.69;76.20;97370.09;4119663;28;20643;-84
2022/02/18 09:12:57;;;;;;;5.07;1.83;;;;;;;12.70;76.26;97366.50;4121674;28;20646;-83
2022/02/18 09:15:00;;;;;;;4.67;1.60;;;;;;;12.74;76.40;97357.41;4103629;28;20759;-84
2022/02/18 09:17:23;;;;;;;7.43;1.83;;;;;;;12.76;78.74;97352.88;4107528;28;20628;-83
2022/02/18 09:19:26;;;;;;;4.93;1.60;;;;;;;12.75;77.40;97343.38;4114814;28;20651;-84
2022/02/18 09:21:29;;;;;;;6.90;2.10;;;;;;;12.72;76.22;97338.41;4099829;28;20637;-83
2022/02/18 09:23:35;;;;;;;6.50;2.20;;;;;;;12.68;78.37;97334.41;4118008;28;20642;-84
2022/02/18 09:25:38;;;;;;;6.53;1.83;;;;;;;12.62;76.47;97334.13;4115337;28;20634;-83
2022/02/18 09:27:42;;;;;;;5.43;1.73;;;;;;;12.65;77.51;97335.66;4111243;28;20647;-83
2022/02/18 09:29:46;;;;;;;6.10;1.60;;;;;;;12.65;77.75;97325.19;4118955;28;20790;-83
2022/02/18 09:31:49;;;;;;;4.17;1.53;;;;;;;12.66;78.48;97314.59;4111008;28;20733;-83
2022/02/18 09:33:54;;;;;;;7.77;1.53;;;;;;;12.67;78.06;97326.69;4118383;28;20654;-84
2022/02/18 09:35:57;;;;;;;7.07;1.80;;;;;;;12.76;77.77;97315.41;4117836;28;20659;-85
2022/02/18 09:38:01;;;;;;;4.70;1.80;;;;;;;12.82;78.91;97315.75;4116595;28;20657;-84
2022/02/18 09:40:09;;;;;;;7.23;2.80;;;;;;;12.82;78.80;97333.19;4116792;28;20826;-84
2022/02/18 09:42:14;;;;;;;4.40;1.60;;;;;;;12.86;78.50;97317.09;4116213;28;20667;-85
2022/02/18 09:44:19;;;;;;;3.00;1.40;;;;;;;12.89;79.46;97311.59;4118596;28;20664;-85
2022/02/18 09:46:23;;;;;;;4.40;1.97;;;;;;;12.97;78.13;97316.94;4113444;28;21317;-84